Terminal Aerodrome Forecast
Issued by NWS Northern Indiana

Home | Current Version | Previous Version | Text Only | Print | Product List | Glossary On
Versions: 1 2 3 4 5 6 7 8 9 10 11 12
000
FTUS43 KIWX 161720
TAFFWA
TAF
KFWA 161720Z 1618/1718 14006KT P6SM SCT050 BKN150
     FM170300 13006KT P6SM VCTS BKN050CB
     FM171000 16006KT 5SM -SHRA VCTS OVC035CB
     FM171400 20010KT P6SM VCSH OVC035=

USA.gov is the U.S. government's official web portal to all federal, state and local government web resources and services.